createdAt,value
2023-04-06T00:01:00.275Z,7.8
2023-04-06T00:02:02.310Z,7.9
2023-04-06T00:03:04.250Z,7.9
2023-04-06T00:04:06.200Z,7.9
2023-04-06T00:05:07.813Z,7.9
2023-04-06T00:06:09.559Z,7.9
2023-04-06T00:07:11.097Z,7.9
2023-04-06T00:08:12.621Z,7.9
2023-04-06T00:09:14.001Z,7.8
2023-04-06T00:10:15.513Z,7.8
2023-04-06T00:11:16.792Z,7.8
2023-04-06T00:12:18.206Z,7.8
2023-04-06T00:13:19.694Z,7.8
2023-04-06T00:14:21.229Z,7.8
2023-04-06T00:15:22.656Z,7.8
2023-04-06T00:16:31.523Z,7.8
2023-04-06T00:17:33.077Z,7.9
2023-04-06T00:18:34.473Z,7.9
2023-04-06T00:19:36.019Z,7.9
2023-04-06T00:20:37.571Z,7.9
2023-04-06T00:21:39.510Z,7.8
2023-04-06T00:22:41.023Z,7.8
2023-04-06T00:23:42.494Z,7.8
2023-04-06T00:24:44.018Z,7.8
2023-04-06T00:25:45.512Z,7.7
2023-04-06T00:26:46.888Z,7.7
2023-04-06T00:27:48.286Z,7.7
2023-04-06T00:28:49.780Z,7.7
2023-04-06T00:29:51.265Z,7.7
2023-04-06T00:30:52.776Z,7.7
2023-04-06T00:31:54.441Z,7.7
2023-04-06T00:32:56.234Z,7.6
2023-04-06T00:33:57.831Z,7.6
2023-04-06T00:34:59.085Z,7.5
2023-04-06T00:36:00.955Z,7.4
2023-04-06T00:37:02.717Z,7.2
2023-04-06T00:38:04.121Z,7.1
2023-04-06T00:39:05.715Z,7.1
2023-04-06T00:40:07.186Z,7.1
2023-04-06T00:41:08.610Z,7.1
2023-04-06T00:42:10.106Z,7.1
2023-04-06T00:43:11.595Z,7.1
2023-04-06T00:44:13.121Z,7.1
2023-04-06T00:45:14.650Z,7.1
2023-04-06T00:46:16.687Z,7.1
2023-04-06T00:47:18.255Z,7.1
2023-04-06T00:48:19.679Z,7.1
2023-04-06T00:49:21.069Z,7.1
2023-04-06T00:50:22.603Z,7.1
2023-04-06T00:51:23.986Z,7.1
2023-04-06T00:52:25.805Z,7.1
2023-04-06T00:53:27.064Z,7.1
2023-04-06T00:54:28.430Z,7.1
2023-04-06T00:55:29.800Z,7.1
2023-04-06T00:56:31.323Z,7.1
2023-04-06T00:57:32.870Z,7.2
2023-04-06T00:58:34.429Z,7.1
2023-04-06T00:59:36.375Z,7.2
2023-04-06T01:00:37.924Z,7.1
2023-04-06T01:01:39.662Z,7.2
2023-04-06T01:02:41.423Z,7.2
2023-04-06T01:03:42.944Z,7.1
2023-04-06T01:04:44.469Z,7.1
2023-04-06T01:05:46.576Z,7.1
2023-04-06T01:06:48.087Z,7.1
2023-04-06T01:07:49.783Z,7.1
2023-04-06T01:08:51.310Z,7.1
2023-04-06T01:09:52.606Z,7.1
2023-04-06T01:10:54.208Z,7.2
2023-04-06T01:11:55.882Z,7.2
2023-04-06T01:12:57.504Z,7.2
2023-04-06T01:13:59.011Z,7.1
2023-04-06T01:15:00.536Z,7.2
2023-04-06T01:16:02.616Z,7.2
2023-04-06T01:17:04.250Z,7.2
2023-04-06T01:18:06.205Z,7.2
2023-04-06T01:19:09.690Z,7.2
2023-04-06T01:20:11.217Z,7.2
2023-04-06T01:21:12.740Z,7.2
2023-04-06T01:22:14.251Z,7.2
2023-04-06T01:23:15.958Z,7.2
2023-04-06T01:24:17.475Z,7.2
2023-04-06T01:25:19.016Z,7.2
2023-04-06T01:26:20.378Z,7.2
2023-04-06T01:27:21.793Z,7.2
2023-04-06T01:28:23.292Z,7.2
2023-04-06T01:29:24.815Z,7.2
2023-04-06T01:30:26.320Z,7.2
2023-04-06T01:31:27.888Z,7.2
2023-04-06T01:32:29.707Z,7.3
2023-04-06T01:33:31.259Z,7.3
2023-04-06T01:34:32.793Z,7.4
2023-04-06T01:35:34.400Z,7.4
2023-04-06T01:36:35.841Z,7.5
2023-04-06T01:37:37.356Z,7.6
2023-04-06T01:38:39.009Z,7.7
2023-04-06T01:39:40.713Z,7.8
2023-04-06T01:40:42.312Z,7.8
2023-04-06T01:41:43.916Z,7.8
2023-04-06T01:42:45.286Z,7.8
2023-04-06T01:43:46.790Z,7.9
2023-04-06T01:44:48.303Z,7.9
2023-04-06T01:45:49.826Z,7.9
2023-04-06T01:46:51.782Z,7.9
2023-04-06T01:47:53.570Z,7.9
2023-04-06T01:48:55.212Z,7.9
2023-04-06T01:49:56.569Z,7.9
2023-04-06T01:50:58.052Z,7.9
2023-04-06T01:51:59.328Z,7.9
2023-04-06T01:53:00.855Z,7.3
2023-04-06T01:54:02.656Z,7.3
2023-04-06T01:55:04.197Z,7.4
2023-04-06T01:56:05.657Z,7.5
2023-04-06T01:57:07.060Z,7.6
2023-04-06T01:58:08.460Z,7.7
2023-04-06T01:59:12.166Z,7.7
2023-04-06T02:00:13.624Z,7.7
2023-04-06T02:01:15.289Z,7.8
2023-04-06T02:02:17.100Z,7.8
2023-04-06T02:03:19.121Z,7.8
2023-04-06T02:04:20.560Z,7.8
2023-04-06T02:05:22.102Z,7.9
2023-04-06T02:06:23.627Z,7.9
2023-04-06T02:07:25.194Z,7.9
2023-04-06T02:08:26.654Z,7.9
2023-04-06T02:09:28.323Z,7.9
2023-04-06T02:10:29.832Z,7.9
2023-04-06T02:11:31.215Z,7.9
2023-04-06T02:12:32.708Z,7.9
2023-04-06T02:13:34.109Z,7.9
2023-04-06T02:14:35.666Z,7.9
2023-04-06T02:15:37.177Z,7.9
2023-04-06T02:16:39.033Z,7.9
2023-04-06T02:17:40.874Z,7.8
2023-04-06T02:18:42.426Z,7.8
2023-04-06T02:19:43.832Z,7.7
2023-04-06T02:20:45.194Z,7.7
2023-04-06T02:21:46.693Z,7.6
2023-04-06T02:22:48.195Z,7.5
2023-04-06T02:23:49.695Z,7.3
2023-04-06T02:24:51.392Z,7.2
2023-04-06T02:25:52.888Z,7.1
2023-04-06T02:26:54.256Z,7.1
2023-04-06T02:27:55.803Z,7.1
2023-04-06T02:28:57.315Z,7.1
2023-04-06T02:29:58.881Z,7.1
2023-04-06T02:31:00.131Z,7.1
2023-04-06T02:41:15.348Z,7.1
2023-04-06T02:42:16.866Z,7.1
2023-04-06T02:43:18.343Z,7.1
2023-04-06T02:44:19.922Z,7.1
2023-04-06T02:45:21.334Z,7.1
2023-04-06T02:46:23.277Z,7.1
2023-04-06T02:47:24.909Z,7.1
2023-04-06T02:48:26.331Z,7.2
2023-04-06T02:49:27.841Z,7.2
2023-04-06T02:50:29.463Z,7.2
2023-04-06T02:51:31.038Z,7.2
2023-04-06T02:52:32.403Z,7.2
2023-04-06T02:53:33.927Z,7.2
2023-04-06T02:54:35.317Z,7.2
2023-04-06T02:55:36.994Z,7.3
2023-04-06T02:56:38.507Z,7.3
2023-04-06T02:57:40.015Z,7.4
2023-04-06T02:58:41.425Z,7.4
2023-04-06T02:59:43.451Z,7.5
2023-04-06T03:00:44.961Z,7.6
2023-04-06T03:01:46.983Z,7.6
2023-04-06T03:02:49.013Z,7.7
2023-04-06T03:03:51.576Z,7.7
2023-04-06T03:04:53.141Z,7.8
2023-04-06T03:05:54.405Z,7.8
2023-04-06T03:06:55.801Z,7.8
2023-04-06T03:07:57.106Z,7.7
2023-04-06T03:08:58.656Z,7.7
2023-04-06T03:10:00.180Z,7.7
2023-04-06T03:11:01.854Z,7.7
2023-04-06T03:12:03.271Z,7.7
2023-04-06T03:13:04.947Z,7.8
2023-04-06T03:14:06.382Z,7.8
2023-04-06T03:15:07.921Z,7.8
2023-04-06T03:16:09.725Z,7.8
2023-04-06T03:17:11.290Z,7.8
2023-04-06T03:18:13.058Z,7.8
2023-04-06T03:19:14.597Z,7.8
2023-04-06T03:20:15.893Z,7.8
2023-04-06T03:21:17.423Z,7.8
2023-04-06T03:22:18.865Z,7.8
2023-04-06T03:23:20.392Z,7.8
2023-04-06T03:24:21.905Z,7.8
2023-04-06T03:25:23.369Z,7.8
2023-04-06T03:26:25.049Z,7.8
2023-04-06T03:27:26.782Z,7.8
2023-04-06T03:28:28.296Z,7.9
2023-04-06T03:29:29.803Z,7.9
2023-04-06T03:30:31.323Z,7.9
2023-04-06T03:31:33.142Z,7.9
2023-04-06T03:32:35.015Z,7.8
2023-04-06T03:33:36.569Z,7.8
2023-04-06T03:34:38.152Z,7.8
2023-04-06T03:35:39.973Z,7.8
2023-04-06T03:36:41.506Z,7.8
2023-04-06T03:37:42.912Z,7.8
2023-04-06T03:38:44.310Z,7.8
2023-04-06T03:39:45.873Z,7.8
2023-04-06T03:40:47.130Z,7.8
2023-04-06T03:41:49.115Z,7.8
2023-04-06T03:42:50.732Z,7.9
2023-04-06T03:43:52.308Z,7.8
2023-04-06T03:44:54.021Z,7.8
2023-04-06T03:45:55.706Z,7.8
2023-04-06T03:46:57.602Z,7.8
2023-04-06T03:47:59.332Z,7.2
2023-04-06T03:49:00.775Z,7.3
2023-04-06T03:50:02.345Z,7.3
2023-04-06T03:51:03.756Z,7.3
2023-04-06T03:52:05.279Z,7.4
2023-04-06T03:53:07.215Z,7.4
2023-04-06T03:54:08.757Z,7.4
2023-04-06T03:55:10.311Z,7.4
2023-04-06T03:56:11.906Z,7.5
2023-04-06T03:57:13.574Z,7.5
2023-04-06T03:58:15.040Z,7.5
2023-04-06T03:59:16.866Z,7.5
2023-04-06T04:00:18.363Z,7.5
2023-04-06T04:01:19.849Z,7.5
2023-04-06T04:02:21.901Z,7.5
2023-04-06T04:03:23.920Z,7.5
2023-04-06T04:04:25.422Z,7.5
2023-04-06T04:05:27.393Z,7.5
2023-04-06T04:06:28.927Z,7.6
2023-04-06T04:07:30.511Z,7.6
2023-04-06T04:08:32.046Z,7.6
2023-04-06T04:09:33.545Z,7.6
2023-04-06T04:10:34.988Z,7.6
2023-04-06T04:11:36.302Z,7.6
2023-04-06T04:12:38.033Z,7.5
2023-04-06T04:13:39.598Z,7.5
2023-04-06T04:14:41.127Z,7.4
2023-04-06T04:15:42.638Z,7.3
2023-04-06T04:16:44.546Z,7.2
2023-04-06T04:17:46.049Z,7.1
2023-04-06T04:18:47.578Z,7.1
2023-04-06T04:19:49.108Z,7.1
2023-04-06T04:20:50.676Z,7.1
2023-04-06T04:21:52.181Z,7.2
2023-04-06T04:22:53.717Z,7.1
2023-04-06T04:23:55.224Z,7.1
2023-04-06T04:24:56.733Z,7.1
2023-04-06T04:25:57.994Z,7.2
2023-04-06T04:26:59.274Z,7.1
2023-04-06T04:28:00.999Z,7.1
2023-04-06T04:29:02.566Z,7.2
2023-04-06T04:30:03.950Z,7.2
2023-04-06T04:31:05.508Z,7.2
2023-04-06T04:32:07.719Z,7.2
2023-04-06T04:33:09.409Z,7.2
2023-04-06T04:34:10.939Z,7.2
2023-04-06T04:35:12.338Z,7.2
2023-04-06T04:36:13.628Z,7.2
2023-04-06T04:37:15.147Z,7.2
2023-04-06T04:38:16.704Z,7.3
2023-04-06T04:39:17.996Z,7.3
2023-04-06T04:40:19.607Z,7.4
2023-04-06T04:41:21.126Z,7.4
2023-04-06T04:42:22.497Z,7.5
2023-04-06T04:43:24.201Z,7.5
2023-04-06T04:44:25.682Z,7.6
2023-04-06T04:45:27.241Z,7.7
2023-04-06T04:46:29.223Z,7.8
2023-04-06T04:47:31.038Z,7.8
2023-04-06T04:48:32.426Z,7.9
2023-04-06T04:49:33.923Z,7.9
2023-04-06T04:50:35.429Z,7.9
2023-04-06T04:51:36.937Z,7.9
2023-04-06T04:52:38.340Z,7.8
2023-04-06T04:53:39.829Z,7.8
2023-04-06T04:54:41.328Z,7.8
2023-04-06T04:55:42.736Z,7.8
2023-04-06T04:56:44.312Z,7.8
2023-04-06T04:57:45.840Z,7.8
2023-04-06T04:58:47.483Z,7.9
2023-04-06T04:59:48.888Z,7.9
2023-04-06T05:00:50.279Z,7.9
2023-04-06T05:01:57.286Z,7.9
2023-04-06T05:02:59.469Z,7.9
2023-04-06T05:04:00.885Z,7.9
2023-04-06T05:05:02.462Z,7.9
2023-04-06T05:06:04.035Z,7.8
2023-04-06T05:07:05.569Z,7.8
2023-04-06T05:08:07.073Z,7.7
2023-04-06T05:09:09.937Z,7.7
2023-04-06T05:10:11.501Z,7.7
2023-04-06T05:11:12.893Z,7.7
2023-04-06T05:12:14.438Z,7.7
2023-04-06T05:13:15.810Z,7.7
2023-04-06T05:14:18.557Z,7.7
2023-04-06T05:15:20.123Z,7.7
2023-04-06T05:16:22.514Z,7.7
2023-04-06T05:17:23.805Z,7.8
2023-04-06T05:18:25.316Z,7.8
2023-04-06T05:19:26.721Z,7.7
2023-04-06T05:20:27.972Z,7.7
2023-04-06T05:21:29.618Z,7.7
2023-04-06T05:22:31.025Z,7.7
2023-04-06T05:23:32.625Z,7.7
2023-04-06T05:24:34.079Z,7.6
2023-04-06T05:25:35.659Z,7.6
2023-04-06T05:26:37.078Z,7.6
2023-04-06T05:27:38.628Z,7.6
2023-04-06T05:28:40.052Z,7.6
2023-04-06T05:29:41.828Z,7.6
2023-04-06T05:30:43.382Z,7.6
2023-04-06T05:31:45.271Z,7.6
2023-04-06T05:32:46.970Z,7.5
2023-04-06T05:33:48.550Z,7.5
2023-04-06T05:34:49.962Z,7.5
2023-04-06T05:35:51.829Z,7.5
2023-04-06T05:36:53.239Z,7.5
2023-04-06T05:37:54.641Z,7.5
2023-04-06T05:38:56.147Z,7.5
2023-04-06T05:39:57.984Z,7.5
2023-04-06T05:40:59.507Z,7.5
2023-04-06T05:42:00.889Z,7.6
2023-04-06T05:43:02.349Z,7.6
2023-04-06T05:44:03.856Z,7.7
2023-04-06T05:45:05.562Z,7.7
2023-04-06T05:46:07.258Z,7.8
2023-04-06T05:47:08.815Z,7.8
2023-04-06T05:48:10.945Z,7.8
2023-04-06T05:49:13.747Z,7.9
2023-04-06T05:50:15.204Z,7.9
2023-04-06T05:51:16.624Z,7.9
2023-04-06T05:52:18.040Z,7.9
2023-04-06T05:53:19.708Z,7.9
2023-04-06T05:54:21.218Z,7.9
2023-04-06T05:55:22.720Z,7.9
2023-04-06T05:56:24.118Z,7.8
2023-04-06T05:57:25.616Z,7.8
2023-04-06T05:58:27.181Z,7.8
2023-04-06T05:59:29.016Z,7.8
2023-04-06T06:00:30.882Z,7.7
2023-04-06T06:01:32.402Z,7.7
2023-04-06T06:02:34.800Z,7.6
2023-04-06T06:03:36.401Z,7.5
2023-04-06T06:04:38.228Z,7.4
2023-04-06T06:05:39.677Z,7.2
2023-04-06T06:06:41.185Z,7.1
2023-04-06T06:07:42.571Z,7.1
2023-04-06T06:08:43.892Z,7.1
2023-04-06T06:09:45.414Z,7.1
2023-04-06T06:10:46.937Z,7.1
2023-04-06T06:11:48.335Z,7.1
2023-04-06T06:12:49.504Z,7.1
2023-04-06T06:13:51.024Z,7.1
2023-04-06T06:14:52.443Z,7.1
2023-04-06T06:15:54.574Z,7.1
2023-04-06T06:16:56.115Z,7.1
2023-04-06T06:17:58.138Z,7.1
2023-04-06T06:18:59.569Z,7.1
2023-04-06T06:20:01.120Z,7.1
2023-04-06T06:21:02.492Z,7.1
2023-04-06T06:22:04.073Z,7.1
2023-04-06T06:23:05.653Z,7.2
2023-04-06T06:24:07.225Z,7.1
2023-04-06T06:25:08.887Z,7.2
2023-04-06T06:26:10.380Z,7.2
2023-04-06T06:27:11.966Z,7.2
2023-04-06T06:28:13.509Z,7.2
2023-04-06T06:29:15.082Z,7.2
2023-04-06T06:30:16.524Z,7.2
2023-04-06T06:31:18.650Z,7.3
2023-04-06T06:32:20.202Z,7.3
2023-04-06T06:33:21.735Z,7.4
2023-04-06T06:34:23.326Z,7.5
2023-04-06T06:35:25.277Z,7.6
2023-04-06T06:36:26.903Z,7.7
2023-04-06T06:37:32.253Z,7.8
2023-04-06T06:38:33.792Z,7.8
2023-04-06T06:39:35.186Z,7.8
2023-04-06T06:40:37.081Z,7.8
2023-04-06T06:41:38.579Z,7.8
2023-04-06T06:42:39.996Z,7.9
2023-04-06T06:43:41.684Z,7.8
2023-04-06T06:44:43.191Z,7.8
2023-04-06T06:45:44.669Z,7.8
2023-04-06T06:46:46.449Z,7.8
2023-04-06T06:47:48.285Z,7.8
2023-04-06T06:48:49.922Z,7.9
2023-04-06T06:49:51.392Z,7.9
2023-04-06T06:50:53.042Z,7.9
2023-04-06T06:51:54.660Z,7.9
2023-04-06T06:52:56.240Z,7.9
2023-04-06T06:53:58.048Z,7.9
2023-04-06T06:54:59.787Z,7.9
2023-04-06T06:56:01.330Z,7.9
2023-04-06T06:57:02.902Z,7.9
2023-04-06T06:58:04.378Z,7.9
2023-04-06T06:59:06.116Z,7.9
2023-04-06T07:00:07.690Z,7.9
2023-04-06T07:01:09.256Z,7.9
2023-04-06T07:02:11.081Z,7.9
2023-04-06T07:03:12.426Z,7.9
2023-04-06T07:04:14.117Z,7.9
2023-04-06T07:05:30.370Z,7.9
2023-04-06T07:06:31.885Z,7.9
2023-04-06T07:07:33.341Z,7.9
2023-04-06T07:08:34.792Z,7.8
2023-04-06T07:09:36.426Z,7.8
2023-04-06T07:10:38.055Z,7.7
2023-04-06T07:11:39.877Z,7.7
2023-04-06T07:12:41.421Z,7.6
2023-04-06T07:13:42.861Z,7.5
2023-04-06T07:14:44.323Z,7.5
2023-04-06T07:15:45.685Z,7.4
2023-04-06T07:16:47.693Z,7.4
2023-04-06T07:17:50.096Z,7.3
2023-04-06T07:18:51.922Z,7.2
2023-04-06T07:19:53.558Z,7.2
2023-04-06T07:20:55.273Z,7.2
2023-04-06T07:21:56.737Z,7.2
2023-04-06T07:22:58.312Z,7.2
2023-04-06T07:24:00.045Z,7.2
2023-04-06T07:25:01.821Z,7.2
2023-04-06T07:26:03.361Z,7.2
2023-04-06T07:27:05.051Z,7.2
2023-04-06T07:28:06.841Z,7.1
2023-04-06T07:29:08.417Z,7.1
2023-04-06T07:30:09.827Z,7.1
2023-04-06T07:31:11.573Z,7.1
2023-04-06T07:32:13.493Z,7.1
2023-04-06T07:33:15.279Z,7.1
2023-04-06T07:34:16.940Z,7.1
2023-04-06T07:35:18.757Z,7.1
2023-04-06T07:36:20.383Z,7.1
2023-04-06T07:37:22.000Z,7.2
2023-04-06T07:38:23.602Z,7.1
2023-04-06T07:39:25.291Z,7.1
2023-04-06T07:40:26.987Z,7.1
2023-04-06T07:41:28.620Z,7.1
2023-04-06T07:42:30.263Z,7.1
2023-04-06T07:43:31.783Z,7.2
2023-04-06T07:44:33.493Z,7.2
2023-04-06T07:45:35.052Z,7.2
2023-04-06T07:46:37.076Z,7.2
2023-04-06T07:47:38.949Z,7.2
2023-04-06T07:48:40.719Z,7.2
2023-04-06T07:49:42.286Z,7.2
2023-04-06T07:50:43.762Z,7.2
2023-04-06T07:51:45.211Z,7.2
2023-04-06T07:52:46.680Z,7.2
2023-04-06T07:53:48.202Z,7.2
2023-04-06T07:54:49.795Z,7.2
2023-04-06T07:55:51.410Z,7.2
2023-04-06T07:56:53.014Z,7.2
2023-04-06T07:57:54.588Z,7.3
2023-04-06T07:58:56.333Z,7.2
2023-04-06T07:59:57.929Z,7.2
2023-04-06T08:00:59.584Z,7.3
2023-04-06T08:02:01.430Z,7.3
2023-04-06T08:03:03.784Z,7.3
2023-04-06T08:04:06.315Z,7.4
2023-04-06T08:05:07.974Z,7.4
2023-04-06T08:06:09.552Z,7.5
2023-04-06T08:07:10.966Z,7.5
2023-04-06T08:08:12.428Z,7.6
2023-04-06T08:09:13.994Z,7.6
2023-04-06T08:10:15.626Z,7.7
2023-04-06T08:11:17.385Z,7.7
2023-04-06T08:12:18.865Z,7.7
2023-04-06T08:13:20.313Z,7.7
2023-04-06T08:14:21.746Z,7.7
2023-04-06T08:15:23.421Z,7.7
2023-04-06T08:16:25.406Z,7.7
2023-04-06T08:17:27.272Z,7.7
2023-04-06T08:18:28.841Z,7.7
2023-04-06T08:19:30.576Z,7.7
2023-04-06T08:20:32.174Z,7.8
2023-04-06T08:21:33.611Z,7.8
2023-04-06T08:22:35.274Z,7.8
2023-04-06T08:23:36.893Z,7.8
2023-04-06T08:24:38.553Z,7.8
2023-04-06T08:25:40.136Z,7.8
2023-04-06T08:26:41.818Z,7.8
2023-04-06T08:27:43.182Z,7.8
2023-04-06T08:28:48.372Z,7.8
2023-04-06T08:29:49.960Z,7.7
2023-04-06T08:30:51.877Z,7.7
2023-04-06T08:31:53.763Z,7.7
2023-04-06T08:32:55.582Z,7.7
2023-04-06T08:33:57.199Z,7.8
2023-04-06T08:34:58.924Z,7.8
2023-04-06T08:36:00.771Z,7.8
2023-04-06T08:37:02.456Z,7.8
2023-04-06T08:38:04.081Z,7.2
2023-04-06T08:39:05.652Z,7.3
2023-04-06T08:40:07.150Z,7.3
2023-04-06T08:41:09.774Z,7.4
2023-04-06T08:42:11.488Z,7.4
2023-04-06T08:43:13.170Z,7.4
2023-04-06T08:44:14.832Z,7.4
2023-04-06T08:45:16.386Z,7.5
2023-04-06T08:46:18.289Z,7.6
2023-04-06T08:47:24.783Z,7.7
2023-04-06T08:48:26.532Z,7.8
2023-04-06T08:49:28.031Z,7.8
2023-04-06T08:50:29.768Z,7.9
2023-04-06T08:51:31.482Z,7.9
2023-04-06T08:52:33.092Z,7.8
2023-04-06T08:53:34.670Z,7.8
2023-04-06T08:54:36.238Z,7.8
2023-04-06T08:55:37.853Z,7.8
2023-04-06T08:56:39.312Z,7.8
2023-04-06T08:57:40.941Z,7.7
2023-04-06T08:58:42.599Z,7.6
2023-04-06T08:59:44.869Z,7.6
2023-04-06T09:00:46.562Z,7.4
2023-04-06T09:01:48.697Z,7.3
2023-04-06T09:02:51.502Z,7.2
2023-04-06T09:03:54.228Z,7.1
2023-04-06T09:04:56.379Z,7.1
2023-04-06T09:05:58.383Z,7.1
2023-04-06T09:06:59.917Z,7.1
2023-04-06T09:08:01.380Z,7.1
2023-04-06T09:09:02.693Z,7.1
2023-04-06T09:10:04.206Z,7.1
2023-04-06T09:11:05.777Z,7.1
2023-04-06T09:12:07.419Z,7.1
2023-04-06T09:13:09.037Z,7.1
2023-04-06T09:14:11.623Z,7.1
2023-04-06T09:15:13.206Z,7.1
2023-04-06T09:16:15.080Z,7.2
2023-04-06T09:17:16.687Z,7.2
2023-04-06T09:18:18.190Z,7.2
2023-04-06T09:19:19.771Z,7.2
2023-04-06T09:20:21.570Z,7.2
2023-04-06T09:21:27.510Z,7.2
2023-04-06T09:22:29.198Z,7.2
2023-04-06T09:23:30.999Z,7.2
2023-04-06T09:24:32.452Z,7.2
2023-04-06T09:25:34.015Z,7.2
2023-04-06T09:26:35.813Z,7.3
2023-04-06T09:27:37.425Z,7.3
2023-04-06T09:28:38.909Z,7.3
2023-04-06T09:29:40.470Z,7.4
2023-04-06T09:30:42.074Z,7.4
2023-04-06T09:31:44.018Z,7.4
2023-04-06T09:32:46.022Z,7.5
2023-04-06T09:33:47.821Z,7.5
2023-04-06T09:34:52.410Z,7.5
2023-04-06T09:35:54.501Z,7.5
2023-04-06T09:36:56.308Z,7.6
2023-04-06T09:37:58.066Z,7.6
2023-04-06T09:38:59.675Z,7.7
2023-04-06T09:40:01.210Z,7.7
2023-04-06T09:41:03.354Z,7.8
2023-04-06T09:42:04.984Z,7.8
2023-04-06T09:43:06.629Z,7.8
2023-04-06T09:44:10.442Z,7.9
2023-04-06T09:45:12.177Z,7.9
2023-04-06T09:46:14.000Z,7.9
2023-04-06T09:47:15.979Z,7.9
2023-04-06T09:48:17.843Z,7.8
2023-04-06T09:49:19.528Z,7.9
2023-04-06T09:50:21.286Z,7.9
2023-04-06T09:51:22.934Z,7.9
2023-04-06T09:52:24.811Z,7.9
2023-04-06T09:53:26.512Z,7.9
2023-04-06T09:54:27.916Z,7.9
2023-04-06T09:55:29.390Z,7.9
2023-04-06T09:56:31.004Z,7.9
2023-04-06T09:57:32.782Z,7.9
2023-04-06T09:58:34.643Z,7.9
2023-04-06T09:59:36.478Z,7.9
2023-04-06T10:00:38.501Z,7.9
2023-04-06T10:01:39.997Z,7.9
2023-04-06T10:02:41.935Z,7.9
2023-04-06T10:03:44.553Z,7.9
2023-04-06T10:04:46.191Z,7.9
2023-04-06T10:05:47.681Z,7.8
2023-04-06T10:06:49.307Z,7.9
2023-04-06T10:08:02.696Z,7.9
2023-04-06T10:09:04.274Z,7.9
2023-04-06T10:10:05.913Z,7.9
2023-04-06T10:11:07.278Z,7.9
2023-04-06T10:12:08.768Z,7.9
2023-04-06T10:13:10.017Z,7.9
2023-04-06T10:14:11.958Z,7.9
2023-04-06T10:15:13.536Z,7.9
2023-04-06T10:16:15.444Z,7.9
2023-04-06T10:17:17.103Z,7.3
2023-04-06T10:18:18.411Z,7.4
2023-04-06T10:19:19.882Z,7.5
2023-04-06T10:20:21.492Z,7.6
2023-04-06T10:21:23.325Z,7.7
2023-04-06T10:22:24.903Z,7.7
2023-04-06T10:23:26.638Z,7.8
2023-04-06T10:24:28.262Z,7.8
2023-04-06T10:25:29.869Z,7.8
2023-04-06T10:26:31.440Z,7.8
2023-04-06T10:27:32.928Z,7.8
2023-04-06T10:28:34.504Z,7.8
2023-04-06T10:29:35.942Z,7.9
2023-04-06T10:30:37.546Z,7.2
2023-04-06T10:31:39.293Z,7.3
2023-04-06T10:32:41.101Z,7.3
2023-04-06T10:33:42.681Z,7.3
2023-04-06T10:34:44.273Z,7.3
2023-04-06T10:35:46.013Z,7.3
2023-04-06T10:36:47.618Z,7.2
2023-04-06T10:37:49.149Z,7.2
2023-04-06T10:38:50.860Z,7.2
2023-04-06T10:39:52.550Z,7.1
2023-04-06T10:40:54.220Z,7.2
2023-04-06T10:41:55.736Z,7.1
2023-04-06T10:42:57.300Z,7.1
2023-04-06T10:43:58.877Z,7.1
2023-04-06T10:45:00.438Z,7.1
2023-04-06T10:46:02.255Z,7.1
2023-04-06T10:47:03.879Z,7.1
2023-04-06T10:48:05.902Z,7.1
2023-04-06T10:49:07.453Z,7.1
2023-04-06T10:50:09.007Z,7.1
2023-04-06T10:51:10.575Z,7.1
2023-04-06T10:52:12.097Z,7.1
2023-04-06T10:53:13.536Z,7.1
2023-04-06T10:54:15.163Z,7.1
2023-04-06T10:55:16.783Z,7.2
2023-04-06T10:56:18.240Z,7.1
2023-04-06T10:57:19.766Z,7.2
2023-04-06T10:58:21.374Z,7.2
2023-04-06T10:59:23.649Z,7.2
2023-04-06T12:13:12.971Z,7.2
2023-04-06T12:14:14.506Z,7.2
2023-04-06T12:15:16.066Z,7.2
2023-04-06T12:16:17.912Z,7.3
2023-04-06T12:17:19.495Z,7.3
2023-04-06T12:18:20.921Z,7.4
2023-04-06T12:19:22.324Z,7.4
2023-04-06T12:23:33.285Z,7.8
2023-04-06T12:24:34.836Z,7.8
2023-04-06T12:25:36.349Z,7.9
2023-04-06T12:26:37.950Z,7.9
2023-04-06T12:27:39.699Z,7.4
2023-04-06T12:30:45.021Z,7.8
2023-04-06T12:31:46.808Z,7.9
2023-04-06T12:35:57.241Z,7.9
2023-04-06T12:36:58.899Z,7.9
2023-04-06T12:38:00.464Z,7.9
2023-04-06T12:39:02.080Z,7.9
2023-04-06T12:40:03.608Z,7.9
2023-04-06T12:41:05.121Z,7.9
2023-04-06T12:42:06.769Z,7.9
2023-04-06T12:43:08.464Z,7.9
2023-04-06T12:44:09.913Z,7.8
2023-04-06T12:45:11.483Z,7.8
2023-04-06T12:46:13.074Z,7.8
2023-04-06T12:47:15.113Z,7.8
2023-04-06T12:48:16.804Z,7.8
2023-04-06T12:49:18.379Z,7.8
2023-04-06T12:50:19.895Z,7.8
2023-04-06T12:51:21.339Z,7.8
2023-04-06T12:52:22.926Z,7.8
2023-04-06T12:53:24.555Z,7.8
2023-04-06T12:54:26.126Z,7.8
2023-04-06T12:55:27.642Z,7.7
2023-04-06T12:56:29.207Z,7.7
2023-04-06T12:57:30.595Z,7.7
2023-04-06T12:58:32.300Z,7.7
2023-04-06T12:59:34.272Z,7.6
2023-04-06T13:00:35.886Z,7.6
2023-04-06T13:01:37.490Z,7.6
2023-04-06T13:02:39.630Z,7.5
2023-04-06T13:03:41.254Z,7.5
2023-04-06T13:04:42.821Z,7.5
2023-04-06T13:05:44.082Z,7.5
2023-04-06T13:06:45.617Z,7.5
2023-04-06T13:07:47.141Z,7.5
2023-04-06T13:08:48.585Z,7.5
2023-04-06T13:09:50.033Z,7.5
2023-04-06T13:10:51.545Z,7.6
2023-04-06T13:11:53.053Z,7.6
2023-04-06T13:12:54.538Z,7.6
2023-04-06T13:13:56.330Z,7.6
2023-04-06T13:14:57.876Z,7.6
2023-04-06T13:15:59.482Z,7.6
2023-04-06T13:17:00.945Z,7.7
2023-04-06T13:18:02.708Z,7.8
2023-04-06T13:19:04.205Z,7.8
2023-04-06T13:20:05.766Z,7.9
2023-04-06T13:21:07.346Z,7.9
2023-04-06T13:22:08.889Z,7.3
2023-04-06T13:23:10.465Z,7.4
2023-04-06T13:24:12.026Z,7.4
2023-04-06T13:25:13.577Z,7.5
2023-04-06T13:26:15.279Z,7.5
2023-04-06T13:27:16.681Z,7.4
2023-04-06T13:28:18.925Z,7.4
2023-04-06T13:29:21.353Z,7.3
2023-04-06T13:30:22.860Z,7.2
2023-04-06T13:31:24.715Z,7.2
2023-04-06T13:32:26.438Z,7.1
2023-04-06T13:33:27.787Z,7.2
2023-04-06T13:34:29.332Z,7.2
2023-04-06T13:35:30.771Z,7.1
2023-04-06T13:36:32.752Z,7.1
2023-04-06T13:37:34.075Z,7.1
2023-04-06T13:38:35.677Z,7.1
2023-04-06T13:39:37.099Z,7.1
2023-04-06T13:40:38.648Z,7.1
2023-04-06T13:41:40.169Z,7.1
2023-04-06T13:42:41.563Z,7.1
2023-04-06T13:43:42.824Z,7.2
2023-04-06T13:44:44.502Z,7.1
2023-04-06T13:45:46.175Z,7.2
2023-04-06T13:46:47.609Z,7.1
2023-04-06T13:47:49.304Z,7.1
2023-04-06T13:48:50.770Z,7.1
2023-04-06T13:49:52.276Z,7.2
2023-04-06T13:50:53.819Z,7.2
2023-04-06T13:51:55.334Z,7.2
2023-04-06T13:52:56.826Z,7.2
2023-04-06T13:53:58.364Z,7.2
2023-04-06T13:54:59.895Z,7.2
2023-04-06T13:56:01.510Z,7.2
2023-04-06T13:57:03.046Z,7.2
2023-04-06T13:58:04.572Z,7.2
2023-04-06T13:59:06.393Z,7.3
2023-04-06T14:00:10.464Z,7.4
2023-04-06T14:01:13.903Z,7.4
2023-04-06T14:02:16.353Z,7.5
2023-04-06T14:03:19.088Z,7.6
2023-04-06T14:04:20.649Z,7.7
2023-04-06T14:05:21.946Z,7.8
2023-04-06T14:09:37.290Z,7.9
2023-04-06T14:10:38.718Z,7.9
2023-04-06T14:11:40.160Z,7.9
2023-04-06T14:12:41.567Z,7.9
2023-04-06T14:14:45.951Z,7.9
2023-04-06T14:15:47.673Z,7.9
2023-04-06T14:16:49.496Z,7.8
2023-04-06T14:17:51.582Z,7.9
2023-04-06T14:18:53.007Z,7.9
2023-04-06T14:19:54.196Z,7.9
2023-04-06T14:20:55.752Z,7.9
2023-04-06T14:21:57.264Z,7.9
2023-04-06T14:22:58.875Z,7.9
2023-04-06T14:24:01.465Z,7.9
2023-04-06T14:25:02.943Z,7.9
2023-04-06T14:26:04.375Z,7.9
2023-04-06T14:27:05.761Z,7.9
2023-04-06T14:28:07.306Z,7.9
2023-04-06T14:29:08.839Z,7.9
2023-04-06T14:30:10.438Z,7.9
2023-04-06T14:31:12.676Z,7.9
2023-04-06T14:32:14.221Z,7.9
2023-04-06T14:33:15.665Z,7.9
2023-04-06T14:34:17.313Z,7.8
2023-04-06T14:35:18.864Z,7.8
2023-04-06T14:36:20.442Z,7.8
2023-04-06T14:37:22.020Z,7.8
2023-04-06T14:38:23.482Z,7.8
2023-04-06T14:39:25.010Z,7.9
2023-04-06T14:40:26.421Z,7.9
2023-04-06T14:41:27.947Z,7.9
2023-04-06T14:42:29.450Z,7.9
2023-04-06T14:43:31.016Z,7.9
2023-04-06T14:44:32.785Z,7.9
2023-04-06T14:45:34.304Z,7.9
2023-04-06T14:46:36.463Z,7.9
2023-04-06T14:47:38.312Z,7.9
2023-04-06T14:48:39.879Z,7.9
2023-04-06T14:49:41.383Z,7.9
2023-04-06T14:50:42.925Z,7.9
2023-04-06T14:51:44.837Z,7.2
2023-04-06T14:52:46.370Z,7.3
2023-04-06T14:53:48.812Z,7.3
2023-04-06T14:54:50.436Z,7.4
2023-04-06T14:55:52.035Z,7.4
2023-04-06T14:56:53.699Z,7.5
2023-04-06T14:57:55.006Z,7.5
2023-04-06T14:58:56.510Z,7.6
2023-04-06T14:59:58.087Z,7.6
2023-04-06T15:00:59.617Z,7.6
2023-04-06T15:02:01.977Z,7.7
2023-04-06T15:03:04.725Z,7.7
2023-04-06T15:04:07.253Z,7.7
2023-04-06T15:05:08.908Z,7.7
2023-04-06T15:06:10.462Z,7.7
2023-04-06T15:07:12.003Z,7.8
2023-04-06T15:08:13.431Z,7.8
2023-04-06T15:09:14.956Z,7.8
2023-04-06T15:10:16.514Z,7.8
2023-04-06T15:11:18.071Z,7.9
2023-04-06T15:12:19.444Z,7.9
2023-04-06T15:13:20.788Z,7.9
2023-04-06T15:14:22.184Z,7.9
2023-04-06T15:15:23.720Z,7.8
2023-04-06T15:16:25.654Z,7.8
2023-04-06T15:17:27.863Z,7.7
2023-04-06T15:18:29.414Z,7.6
2023-04-06T15:19:30.818Z,7.5
2023-04-06T15:20:32.478Z,7.4
2023-04-06T15:21:33.985Z,7.3
2023-04-06T15:22:35.551Z,7.2
2023-04-06T15:23:37.222Z,7.1
2023-04-06T15:24:38.738Z,7.1
2023-04-06T15:25:40.281Z,7.1
2023-04-06T15:26:41.827Z,7.1
2023-04-06T15:27:43.384Z,7.1
2023-04-06T15:28:44.828Z,7.1
2023-04-06T15:29:46.445Z,7.1
2023-04-06T15:30:47.853Z,7.1
2023-04-06T15:31:49.450Z,7.1
2023-04-06T15:32:51.436Z,7.1
2023-04-06T15:33:52.871Z,7.1
2023-04-06T15:34:54.308Z,7.1
2023-04-06T15:35:56.057Z,7.1
2023-04-06T15:36:57.375Z,7.1
2023-04-06T15:37:58.966Z,7.1
2023-04-06T15:39:01.045Z,7.1
2023-04-06T15:40:03.215Z,7.1
2023-04-06T15:41:04.775Z,7.2
2023-04-06T15:42:06.384Z,7.1
2023-04-06T15:43:07.732Z,7.2
2023-04-06T15:44:09.273Z,7.2
2023-04-06T15:45:10.923Z,7.2